Flugplatz Laupheim Airport

Bericht für ETHL

vom 30.03. um 21:20 UTC

Wind 3 kt aus 110°

Sichtweite 10 km oder mehr

gering bewölkt in 5000 ft

Temperatur -1.0°C

Taupunkt -10.0°C

Luftfeuchtigkeit 50%

Luftdruck 1023 hPa

ETHL 302120Z 11003KT 9999 FEW050 M01/M10 Q1023 BLU+BLU+

Prognose für ETHL

vom 30.03. um 21:00 UTC

Zwischen 20:00 UTC und 05:00 UTC

Wind 10 kt aus 50°

Sichtweite 10 km oder mehr

keine signifikanten Wettererscheinungen

gering bewölkt in 3000 ft

TAF AMD ETHL 302100Z 3020/3105 05010KT 9999 NSW FEW030 CANCEL 2200
Impressum